createdAt,value
2019-06-26T00:00:45.705Z,5.55
2019-06-26T00:01:51.752Z,4.78
2019-06-26T00:02:57.504Z,5.28
2019-06-26T00:04:03.423Z,6.15
2019-06-26T00:05:08.694Z,5.70
2019-06-26T00:06:14.934Z,5.20
2019-06-26T00:07:20.391Z,5.37
2019-06-26T00:08:26.760Z,5.35
2019-06-26T00:09:32.137Z,5.22
2019-06-26T00:10:38.644Z,5.20
2019-06-26T00:11:43.901Z,4.75
2019-06-26T00:12:49.888Z,5.33
2019-06-26T00:13:55.058Z,7.50
2019-06-26T00:15:01.254Z,5.75
2019-06-26T00:16:06.821Z,5.47
2019-06-26T00:17:12.946Z,7.70
2019-06-26T00:18:18.030Z,5.42
2019-06-26T00:19:24.379Z,6.22
2019-06-26T00:20:29.594Z,5.47
2019-06-26T00:21:35.953Z,5.67
2019-06-26T00:22:41.408Z,7.20
2019-06-26T00:23:47.377Z,5.40
2019-06-26T00:24:52.817Z,5.53
2019-06-26T00:25:58.799Z,5.53
2019-06-26T00:27:04.498Z,6.17
2019-06-26T00:28:11.364Z,5.37
2019-06-26T00:29:16.594Z,7.87
2019-06-26T00:30:22.808Z,6.15
2019-06-26T00:31:28.314Z,6.03
2019-06-26T00:32:34.647Z,6.13
2019-06-26T00:33:40.083Z,6.70
2019-06-26T00:34:46.561Z,5.97
2019-06-26T00:35:51.801Z,5.53
2019-06-26T00:36:57.969Z,5.40
2019-06-26T00:38:04.362Z,5.62
2019-06-26T00:39:10.345Z,5.62
2019-06-26T00:40:15.790Z,4.97
2019-06-26T00:41:22.093Z,6.35
2019-06-26T00:42:27.593Z,6.03
2019-06-26T00:43:42.461Z,6.20
2019-06-26T00:44:41.075Z,7.05
2019-06-26T00:45:46.907Z,6.58
2019-06-26T00:46:52.398Z,6.00
2019-06-26T00:47:58.356Z,5.90
2019-06-26T00:49:03.731Z,5.95
2019-06-26T00:50:11.226Z,6.00
2019-06-26T00:51:17.096Z,5.90
2019-06-26T00:52:23.322Z,5.75
2019-06-26T00:53:28.712Z,5.87
2019-06-26T00:54:34.917Z,5.85
2019-06-26T00:55:40.226Z,6.53
2019-06-26T00:56:46.204Z,6.70
2019-06-26T00:57:51.725Z,6.30
2019-06-26T00:58:57.676Z,6.12
2019-06-26T01:00:08.821Z,6.53
2019-06-26T01:01:16.582Z,5.60
2019-06-26T01:02:23.505Z,6.13
2019-06-26T01:03:31.223Z,6.05
2019-06-26T01:04:40.677Z,5.20
2019-06-26T01:05:47.517Z,6.30
2019-06-26T01:06:53.682Z,5.92
2019-06-26T01:08:02.118Z,6.60
2019-06-26T01:09:11.685Z,6.08
2019-06-26T01:10:18.413Z,5.60
2019-06-26T01:11:24.108Z,6.55
2019-06-26T01:12:31.679Z,6.28
2019-06-26T01:13:38.935Z,6.65
2019-06-26T01:14:44.812Z,6.03
2019-06-26T01:15:50.245Z,5.97
2019-06-26T01:16:56.839Z,5.97
2019-06-26T01:18:02.378Z,10.03
2019-06-26T01:19:08.330Z,6.15
2019-06-26T01:20:15.492Z,6.12
2019-06-26T01:21:21.990Z,6.62
2019-06-26T01:22:27.924Z,6.20
2019-06-26T01:23:33.744Z,5.67
2019-06-26T01:24:38.902Z,6.20
2019-06-26T01:25:45.191Z,6.20
2019-06-26T01:26:50.322Z,6.65
2019-06-26T01:27:56.273Z,6.75
2019-06-26T01:29:01.484Z,6.03
2019-06-26T01:30:08.404Z,11.23
2019-06-26T01:31:13.836Z,6.08
2019-06-26T01:32:20.006Z,7.03
2019-06-26T01:33:25.190Z,6.42
2019-06-26T01:34:31.208Z,6.25
2019-06-26T01:35:36.838Z,6.15
2019-06-26T01:36:42.813Z,6.00
2019-06-26T01:37:48.541Z,6.45
2019-06-26T01:38:54.562Z,6.15
2019-06-26T01:40:00.135Z,5.87
2019-06-26T01:41:06.114Z,5.87
2019-06-26T01:42:11.234Z,9.20
2019-06-26T01:43:17.708Z,6.03
2019-06-26T01:44:23.101Z,5.75
2019-06-26T01:45:29.402Z,5.87
2019-06-26T01:46:35.421Z,6.35
2019-06-26T01:47:42.043Z,5.87
2019-06-26T01:48:47.137Z,5.97
2019-06-26T01:49:53.226Z,6.83
2019-06-26T01:50:58.330Z,7.45
2019-06-26T01:52:04.799Z,6.07
2019-06-26T01:53:10.149Z,6.17
2019-06-26T01:54:16.019Z,6.03
2019-06-26T01:55:21.411Z,5.50
2019-06-26T01:56:27.384Z,6.13
2019-06-26T01:57:32.705Z,6.63
2019-06-26T01:58:39.581Z,6.92
2019-06-26T01:59:45.035Z,6.00
2019-06-26T02:00:52.456Z,6.62
2019-06-26T02:01:59.397Z,6.10
2019-06-26T02:03:05.464Z,6.42
2019-06-26T02:04:10.633Z,6.42
2019-06-26T02:05:16.697Z,6.72
2019-06-26T02:06:22.635Z,7.33
2019-06-26T02:07:29.328Z,6.70
2019-06-26T02:08:34.494Z,5.47
2019-06-26T02:09:40.999Z,6.60
2019-06-26T02:10:46.501Z,6.33
2019-06-26T02:11:52.963Z,5.75
2019-06-26T02:12:58.507Z,6.58
2019-06-26T02:14:04.519Z,6.67
2019-06-26T02:15:10.460Z,5.97
2019-06-26T02:16:16.985Z,6.83
2019-06-26T02:17:22.166Z,6.83
2019-06-26T02:18:37.935Z,6.12
2019-06-26T02:19:43.580Z,6.40
2019-06-26T02:20:49.701Z,5.65
2019-06-26T02:21:55.490Z,6.25
2019-06-26T02:23:02.066Z,5.78
2019-06-26T02:24:07.532Z,6.33
2019-06-26T02:25:13.788Z,7.35
2019-06-26T02:26:19.187Z,7.53
2019-06-26T02:27:25.630Z,6.30
2019-06-26T02:28:31.159Z,6.13
2019-06-26T02:29:37.037Z,5.65
2019-06-26T02:30:42.599Z,6.47
2019-06-26T02:31:48.841Z,7.60
2019-06-26T02:32:53.907Z,5.85
2019-06-26T02:34:00.065Z,6.47
2019-06-26T02:35:09.365Z,6.30
2019-06-26T02:36:13.281Z,7.97
2019-06-26T02:37:18.478Z,6.25
2019-06-26T02:38:24.298Z,6.70
2019-06-26T02:39:29.787Z,6.22
2019-06-26T02:40:36.010Z,6.35
2019-06-26T02:41:41.508Z,7.03
2019-06-26T02:42:48.096Z,6.80
2019-06-26T02:43:53.285Z,6.45
2019-06-26T02:44:59.412Z,6.20
2019-06-26T02:46:04.909Z,5.95
2019-06-26T02:47:19.840Z,6.80
2019-06-26T02:48:17.645Z,7.08
2019-06-26T02:49:23.711Z,6.85
2019-06-26T02:50:28.824Z,6.50
2019-06-26T02:51:35.085Z,6.35
2019-06-26T02:52:40.259Z,6.33
2019-06-26T02:53:46.559Z,6.55
2019-06-26T02:54:51.649Z,7.05
2019-06-26T02:55:57.788Z,6.63
2019-06-26T02:57:04.225Z,6.30
2019-06-26T02:58:10.530Z,9.23
2019-06-26T02:59:15.977Z,6.00
2019-06-26T03:00:22.300Z,6.83
2019-06-26T03:01:27.761Z,6.05
2019-06-26T03:02:33.949Z,6.78
2019-06-26T03:03:39.463Z,6.50
2019-06-26T03:04:45.949Z,6.80
2019-06-26T03:05:51.056Z,6.53
2019-06-26T03:06:56.956Z,6.50
2019-06-26T03:08:02.560Z,7.15
2019-06-26T03:09:09.369Z,7.17
2019-06-26T03:10:15.366Z,7.03
2019-06-26T03:11:21.792Z,6.67
2019-06-26T03:12:26.897Z,7.12
2019-06-26T03:13:33.185Z,6.35
2019-06-26T03:14:38.611Z,7.70
2019-06-26T03:15:44.732Z,6.45
2019-06-26T03:16:49.870Z,7.03
2019-06-26T03:17:56.027Z,7.10
2019-06-26T03:19:01.220Z,6.70
2019-06-26T03:20:08.101Z,7.17
2019-06-26T03:21:13.594Z,6.40
2019-06-26T03:22:20.329Z,7.00
2019-06-26T03:23:25.572Z,7.17
2019-06-26T03:24:31.780Z,7.13
2019-06-26T03:25:37.306Z,6.57
2019-06-26T03:26:44.238Z,6.83
2019-06-26T03:27:49.558Z,7.67
2019-06-26T03:28:55.390Z,7.10
2019-06-26T03:30:00.427Z,7.10
2019-06-26T03:31:07.457Z,6.60
2019-06-26T03:32:14.822Z,8.03
2019-06-26T03:33:23.165Z,6.58
2019-06-26T03:34:28.977Z,7.40
2019-06-26T03:35:35.960Z,6.53
2019-06-26T03:36:41.241Z,6.80
2019-06-26T03:37:48.050Z,6.73
2019-06-26T03:38:53.743Z,7.92
2019-06-26T03:40:00.405Z,6.62
2019-06-26T03:41:05.814Z,6.70
2019-06-26T03:42:12.049Z,6.58
2019-06-26T03:43:17.588Z,6.80
2019-06-26T03:44:23.783Z,6.42
2019-06-26T03:45:29.247Z,6.85
2019-06-26T03:46:35.548Z,6.77
2019-06-26T03:47:40.929Z,6.50
2019-06-26T03:48:46.759Z,6.67
2019-06-26T03:49:52.031Z,7.37
2019-06-26T03:50:58.014Z,6.63
2019-06-26T03:52:03.116Z,6.22
2019-06-26T03:53:09.500Z,7.08
2019-06-26T03:54:14.618Z,6.37
2019-06-26T03:55:20.640Z,6.77
2019-06-26T03:56:25.972Z,6.17
2019-06-26T03:57:35.351Z,6.63
2019-06-26T03:58:39.444Z,6.70
2019-06-26T03:59:45.719Z,6.90
2019-06-26T04:00:50.885Z,6.90
2019-06-26T04:01:57.329Z,7.05
2019-06-26T04:03:03.007Z,6.73
2019-06-26T04:04:09.437Z,7.50
2019-06-26T04:05:14.907Z,6.83
2019-06-26T04:06:21.339Z,6.47
2019-06-26T04:07:26.756Z,6.87
2019-06-26T04:08:32.914Z,6.72
2019-06-26T04:09:37.961Z,6.53
2019-06-26T04:10:43.913Z,6.73
2019-06-26T04:11:49.429Z,6.47
2019-06-26T04:12:56.094Z,7.70
2019-06-26T04:14:01.126Z,8.20
2019-06-26T04:15:07.790Z,6.70
2019-06-26T04:16:13.802Z,6.80
2019-06-26T04:17:19.719Z,7.57
2019-06-26T04:18:25.365Z,7.07
2019-06-26T04:19:31.534Z,7.43
2019-06-26T04:20:36.647Z,7.40
2019-06-26T04:21:42.584Z,6.78
2019-06-26T04:22:47.923Z,7.33
2019-06-26T04:23:54.350Z,6.63
2019-06-26T04:24:59.451Z,6.50
2019-06-26T04:26:05.861Z,6.72
2019-06-26T04:27:11.604Z,7.00
2019-06-26T04:28:17.607Z,8.05
2019-06-26T04:29:23.150Z,7.50
2019-06-26T04:30:29.333Z,7.47
2019-06-26T04:31:34.751Z,7.33
2019-06-26T04:32:40.714Z,7.90
2019-06-26T04:33:45.681Z,7.05
2019-06-26T04:34:54.505Z,7.37
2019-06-26T04:35:58.883Z,7.67
2019-06-26T04:37:04.778Z,7.28
2019-06-26T04:38:09.983Z,6.53
2019-06-26T04:39:16.240Z,7.40
2019-06-26T04:40:21.648Z,7.28
2019-06-26T04:41:28.207Z,9.20
2019-06-26T04:42:34.066Z,6.97
2019-06-26T04:43:40.583Z,7.30
2019-06-26T04:44:45.619Z,7.67
2019-06-26T04:45:58.219Z,7.50
2019-06-26T04:46:58.842Z,8.00
2019-06-26T04:48:07.187Z,7.30
2019-06-26T04:49:12.392Z,8.18
2019-06-26T04:50:19.112Z,7.40
2019-06-26T04:51:24.231Z,7.17
2019-06-26T04:52:30.210Z,6.97
2019-06-26T04:53:35.757Z,7.58
2019-06-26T04:54:41.508Z,7.70
2019-06-26T04:55:46.935Z,6.80
2019-06-26T04:56:53.077Z,7.65
2019-06-26T04:57:58.099Z,7.70
2019-06-26T04:59:04.067Z,7.80
2019-06-26T05:00:10.537Z,8.48
2019-06-26T05:01:16.811Z,7.40
2019-06-26T05:02:22.210Z,8.48
2019-06-26T05:03:28.568Z,7.37
2019-06-26T05:04:34.271Z,7.42
2019-06-26T05:05:40.568Z,7.67
2019-06-26T05:06:46.092Z,7.67
2019-06-26T05:07:53.804Z,7.73
2019-06-26T05:08:59.003Z,7.92
2019-06-26T05:10:05.324Z,7.90
2019-06-26T05:11:12.867Z,7.42
2019-06-26T05:12:18.228Z,7.90
2019-06-26T05:13:23.961Z,7.92
2019-06-26T05:14:30.491Z,8.55
2019-06-26T05:15:35.941Z,8.93
2019-06-26T05:16:41.841Z,7.97
2019-06-26T05:17:47.021Z,11.03
2019-06-26T05:18:53.299Z,7.97
2019-06-26T05:19:58.319Z,8.20
2019-06-26T05:21:04.540Z,8.18
2019-06-26T05:22:10.386Z,7.97
2019-06-26T05:23:16.234Z,7.45
2019-06-26T05:24:22.273Z,9.75
2019-06-26T05:25:28.215Z,8.30
2019-06-26T05:26:33.756Z,8.50
2019-06-26T05:27:39.974Z,8.40
2019-06-26T05:28:45.065Z,8.70
2019-06-26T05:29:54.287Z,8.88
2019-06-26T05:30:59.068Z,8.35
2019-06-26T05:32:05.410Z,7.30
2019-06-26T05:33:10.508Z,8.28
2019-06-26T05:34:16.762Z,11.35
2019-06-26T05:35:22.639Z,8.70
2019-06-26T05:36:28.847Z,7.97
2019-06-26T05:37:34.499Z,8.73
2019-06-26T05:38:40.508Z,8.03
2019-06-26T05:39:46.219Z,10.35
2019-06-26T05:40:52.753Z,8.90
2019-06-26T05:41:58.238Z,12.85
2019-06-26T05:43:06.182Z,8.58
2019-06-26T05:44:12.280Z,8.15
2019-06-26T05:45:18.911Z,7.90
2019-06-26T05:46:30.880Z,8.90
2019-06-26T05:47:31.856Z,8.20
2019-06-26T05:48:37.152Z,7.87
2019-06-26T05:49:44.120Z,8.35
2019-06-26T05:50:49.960Z,8.50
2019-06-26T05:51:56.589Z,8.58
2019-06-26T05:53:02.100Z,8.63
2019-06-26T05:54:08.063Z,7.97
2019-06-26T05:55:14.349Z,8.63
2019-06-26T05:56:20.596Z,7.95
2019-06-26T05:57:25.750Z,8.08
2019-06-26T05:58:31.703Z,8.08
2019-06-26T05:59:37.095Z,10.45
2019-06-26T06:00:43.336Z,9.10
2019-06-26T06:01:48.541Z,9.63
2019-06-26T06:02:54.658Z,7.80
2019-06-26T06:04:00.189Z,7.97
2019-06-26T06:05:06.675Z,8.23
2019-06-26T06:06:12.132Z,8.43
2019-06-26T06:07:18.292Z,8.33
2019-06-26T06:08:23.669Z,10.80
2019-06-26T06:09:30.000Z,8.70
2019-06-26T06:10:35.479Z,9.10
2019-06-26T06:11:42.183Z,8.25
2019-06-26T06:12:47.920Z,8.53
2019-06-26T06:13:53.816Z,8.95
2019-06-26T06:14:59.233Z,8.45
2019-06-26T06:16:06.592Z,8.50
2019-06-26T06:17:12.778Z,8.38
2019-06-26T06:18:19.287Z,8.85
2019-06-26T06:19:24.858Z,9.08
2019-06-26T06:20:39.465Z,9.13
2019-06-26T06:21:44.607Z,9.80
2019-06-26T06:22:50.798Z,10.15
2019-06-26T06:23:56.624Z,10.80
2019-06-26T06:25:03.102Z,12.35
2019-06-26T06:26:08.685Z,12.50
2019-06-26T06:27:14.510Z,16.67
2019-06-26T06:28:19.760Z,10.50
2019-06-26T06:29:25.965Z,11.25
2019-06-26T06:30:31.095Z,12.07
2019-06-26T06:31:37.474Z,12.80
2019-06-26T06:32:42.647Z,11.00
2019-06-26T06:33:48.749Z,11.88
2019-06-26T06:34:53.934Z,12.47
2019-06-26T06:35:59.985Z,12.18
2019-06-26T06:37:05.487Z,12.90
2019-06-26T06:38:11.656Z,12.73
2019-06-26T06:39:17.670Z,13.15
2019-06-26T06:40:23.735Z,13.22
2019-06-26T06:41:29.070Z,14.30
2019-06-26T06:42:35.419Z,14.05
2019-06-26T06:43:40.958Z,14.73
2019-06-26T06:44:47.488Z,14.78
2019-06-26T06:45:53.015Z,15.45
2019-06-26T06:47:03.705Z,16.25
2019-06-26T06:48:06.013Z,19.87
2019-06-26T06:49:12.231Z,17.40
2019-06-26T06:50:17.536Z,18.50
2019-06-26T06:51:23.548Z,20.50
2019-06-26T06:52:28.642Z,19.70
2019-06-26T06:53:34.579Z,19.82
2019-06-26T06:54:39.978Z,17.62
2019-06-26T06:55:45.959Z,19.75
2019-06-26T06:56:53.151Z,20.23
2019-06-26T06:57:59.342Z,17.75
2019-06-26T06:59:05.162Z,19.20
2019-06-26T07:00:11.342Z,22.62
2019-06-26T07:01:17.067Z,23.00
2019-06-26T07:02:23.318Z,20.92
2019-06-26T07:03:28.689Z,20.17
2019-06-26T07:04:34.692Z,18.40
2019-06-26T07:05:39.938Z,17.80
2019-06-26T07:06:46.234Z,18.50
2019-06-26T07:07:51.731Z,19.48
2019-06-26T07:08:57.952Z,17.65
2019-06-26T07:10:03.789Z,18.65
2019-06-26T07:11:09.971Z,18.02
2019-06-26T07:12:15.781Z,16.45
2019-06-26T07:13:22.480Z,17.45
2019-06-26T07:14:27.976Z,16.10
2019-06-26T07:15:33.959Z,15.23
2019-06-26T07:16:39.374Z,15.88
2019-06-26T07:17:46.392Z,15.75
2019-06-26T07:18:52.164Z,14.68
2019-06-26T07:19:58.092Z,14.40
2019-06-26T07:21:03.298Z,15.55
2019-06-26T07:22:09.213Z,16.70
2019-06-26T07:23:14.679Z,17.25
2019-06-26T07:24:20.899Z,15.03
2019-06-26T07:25:26.021Z,15.53
2019-06-26T07:26:32.567Z,15.28
2019-06-26T07:27:37.786Z,14.15
2019-06-26T07:28:43.793Z,15.43
2019-06-26T07:29:49.029Z,12.93
2019-06-26T07:30:55.275Z,13.25
2019-06-26T07:32:01.202Z,15.13
2019-06-26T07:33:07.637Z,15.32
2019-06-26T07:34:12.869Z,13.05
2019-06-26T07:35:19.033Z,13.48
2019-06-26T07:36:24.189Z,14.10
2019-06-26T07:37:30.711Z,14.15
2019-06-26T07:38:36.351Z,14.40
2019-06-26T07:39:42.332Z,13.05
2019-06-26T07:40:48.010Z,11.48
2019-06-26T07:41:54.900Z,12.55
2019-06-26T07:43:00.297Z,12.15
2019-06-26T07:44:06.868Z,12.43
2019-06-26T07:45:13.327Z,12.07
2019-06-26T07:46:19.591Z,12.82
2019-06-26T07:47:41.564Z,12.43
2019-06-26T07:48:32.473Z,12.63
2019-06-26T07:49:37.889Z,11.45
2019-06-26T07:50:44.551Z,11.08
2019-06-26T07:51:49.687Z,11.12
2019-06-26T07:52:55.607Z,12.80
2019-06-26T07:54:01.984Z,12.40
2019-06-26T07:55:11.903Z,13.50
2019-06-26T07:56:16.588Z,11.90
2019-06-26T07:57:22.687Z,11.38
2019-06-26T07:58:28.295Z,10.90
2019-06-26T07:59:34.777Z,11.57
2019-06-26T08:00:39.944Z,12.40
2019-06-26T08:01:46.233Z,11.80
2019-06-26T08:02:51.884Z,10.82
2019-06-26T08:03:57.890Z,10.75
2019-06-26T08:05:03.070Z,11.93
2019-06-26T08:06:09.278Z,11.70
2019-06-26T08:07:14.823Z,11.48
2019-06-26T08:08:21.401Z,11.57
2019-06-26T08:09:26.666Z,10.18
2019-06-26T08:10:32.917Z,12.98
2019-06-26T08:11:38.058Z,11.45
2019-06-26T08:12:44.687Z,13.32
2019-06-26T08:13:50.180Z,10.55
2019-06-26T08:14:56.486Z,11.60
2019-06-26T08:16:02.467Z,14.73
2019-06-26T08:17:08.523Z,11.70
2019-06-26T08:18:14.022Z,12.35
2019-06-26T08:19:20.022Z,10.72
2019-06-26T08:20:25.595Z,12.10
2019-06-26T08:21:31.866Z,11.90
2019-06-26T08:22:37.342Z,10.93
2019-06-26T08:23:43.616Z,10.35
2019-06-26T08:24:49.057Z,11.50
2019-06-26T08:25:55.552Z,11.22
2019-06-26T08:27:01.009Z,10.23
2019-06-26T08:28:07.237Z,11.33
2019-06-26T08:29:12.678Z,10.72
2019-06-26T08:30:19.767Z,10.05
2019-06-26T08:31:25.460Z,9.45
2019-06-26T08:32:32.026Z,9.75
2019-06-26T08:33:37.511Z,9.65
2019-06-26T08:34:43.791Z,10.03
2019-06-26T08:35:49.044Z,10.50
2019-06-26T08:36:55.292Z,9.90
2019-06-26T08:38:11.041Z,10.05
2019-06-26T08:39:09.191Z,9.05
2019-06-26T08:40:16.250Z,9.28
2019-06-26T08:41:23.087Z,9.10
2019-06-26T08:42:28.181Z,10.90
2019-06-26T08:43:34.407Z,10.43
2019-06-26T08:44:39.866Z,9.58
2019-06-26T08:45:46.266Z,9.38
2019-06-26T08:46:51.791Z,9.45
2019-06-26T08:47:58.140Z,9.28
2019-06-26T08:49:03.743Z,10.18
2019-06-26T08:50:10.361Z,8.33
2019-06-26T08:51:15.456Z,9.53
2019-06-26T08:52:22.081Z,8.33
2019-06-26T08:53:27.292Z,8.85
2019-06-26T08:54:33.769Z,8.63
2019-06-26T08:55:39.170Z,8.55
2019-06-26T08:56:45.329Z,8.78
2019-06-26T08:57:50.554Z,8.25
2019-06-26T08:58:56.529Z,8.68
2019-06-26T09:00:01.600Z,8.03
2019-06-26T09:01:08.227Z,8.60
2019-06-26T09:02:13.710Z,8.40
2019-06-26T09:03:21.090Z,8.15
2019-06-26T09:04:26.975Z,7.67
2019-06-26T09:05:47.620Z,7.00
2019-06-26T09:06:40.655Z,7.58
2019-06-26T09:07:46.737Z,6.50
2019-06-26T09:08:52.215Z,8.75
2019-06-26T09:09:58.554Z,6.22
2019-06-26T09:11:04.293Z,6.42
2019-06-26T09:12:10.464Z,6.60
2019-06-26T09:13:15.661Z,6.87
2019-06-26T09:14:21.585Z,6.45
2019-06-26T09:15:26.745Z,6.90
2019-06-26T09:16:32.945Z,6.45
2019-06-26T09:17:38.438Z,6.85
2019-06-26T09:18:44.946Z,6.87
2019-06-26T09:19:50.230Z,6.55
2019-06-26T09:20:56.515Z,6.05
2019-06-26T09:22:02.829Z,5.85
2019-06-26T09:23:09.551Z,6.15
2019-06-26T09:24:14.687Z,6.05
2019-06-26T09:25:22.568Z,5.53
2019-06-26T09:26:28.710Z,6.83
2019-06-26T09:27:34.667Z,5.97
2019-06-26T09:28:40.714Z,5.22
2019-06-26T09:29:47.390Z,5.62
2019-06-26T09:30:52.605Z,4.78
2019-06-26T09:31:59.295Z,4.58
2019-06-26T09:33:04.800Z,5.12
2019-06-26T09:34:10.880Z,4.33
2019-06-26T09:35:16.171Z,4.50
2019-06-26T09:36:22.737Z,4.25
2019-06-26T09:37:28.319Z,5.37
2019-06-26T09:38:34.308Z,4.15
2019-06-26T09:39:40.067Z,4.08
2019-06-26T09:40:46.008Z,5.75
2019-06-26T09:41:51.586Z,4.50
2019-06-26T09:42:57.799Z,4.90
2019-06-26T09:44:04.021Z,4.78
2019-06-26T09:45:10.411Z,4.67
2019-06-26T09:46:15.640Z,4.83
2019-06-26T09:47:21.939Z,4.40
2019-06-26T09:48:27.065Z,4.42
2019-06-26T09:49:33.027Z,4.33
2019-06-26T09:50:38.559Z,4.87
2019-06-26T09:51:45.289Z,3.95
2019-06-26T09:52:51.166Z,3.72
2019-06-26T09:53:57.776Z,5.58
2019-06-26T09:55:02.821Z,5.87
2019-06-26T09:56:09.192Z,5.28
2019-06-26T09:57:14.617Z,3.98
2019-06-26T09:58:20.874Z,4.80
2019-06-26T09:59:26.577Z,4.60
2019-06-26T10:00:32.773Z,5.60
2019-06-26T10:01:38.298Z,4.45
2019-06-26T10:02:44.586Z,4.53
2019-06-26T10:03:49.781Z,7.10
2019-06-26T10:04:55.819Z,5.20
2019-06-26T10:06:01.792Z,6.33
2019-06-26T10:07:07.841Z,5.28
2019-06-26T10:08:14.002Z,6.35
2019-06-26T10:09:20.023Z,5.67
2019-06-26T10:10:25.546Z,5.65
2019-06-26T10:11:31.848Z,6.00
2019-06-26T10:12:37.221Z,6.67
2019-06-26T10:13:43.521Z,5.62
2019-06-26T10:14:49.104Z,5.72
2019-06-26T10:15:55.669Z,4.65
2019-06-26T10:17:01.037Z,5.60
2019-06-26T10:18:07.031Z,6.33
2019-06-26T10:19:12.629Z,4.85
2019-06-26T10:20:20.169Z,5.22
2019-06-26T10:21:25.642Z,5.20
2019-06-26T10:22:31.860Z,5.58
2019-06-26T10:23:37.010Z,5.70
2019-06-26T10:24:43.151Z,5.40
2019-06-26T10:25:48.494Z,5.12
2019-06-26T10:26:54.489Z,5.97
2019-06-26T10:28:00.068Z,4.40
2019-06-26T10:29:06.136Z,4.65
2019-06-26T10:30:12.807Z,6.40
2019-06-26T10:31:18.779Z,4.42
2019-06-26T10:32:24.158Z,6.30
2019-06-26T10:33:30.422Z,4.28
2019-06-26T10:34:35.874Z,3.47
2019-06-26T10:35:41.954Z,3.52
2019-06-26T10:36:47.219Z,2.47
2019-06-26T10:37:53.539Z,2.95
2019-06-26T10:38:58.595Z,2.98
2019-06-26T10:40:06.508Z,4.37
2019-06-26T10:41:11.698Z,3.35
2019-06-26T10:42:17.764Z,2.90
2019-06-26T10:43:23.131Z,5.95
2019-06-26T10:44:29.416Z,3.55
2019-06-26T10:45:36.379Z,4.30
2019-06-26T10:46:43.032Z,2.65
2019-06-26T10:47:48.093Z,5.03
2019-06-26T10:48:54.308Z,3.00
2019-06-26T10:50:00.188Z,2.90
2019-06-26T10:51:06.174Z,3.22
2019-06-26T10:52:11.312Z,3.33
2019-06-26T10:53:17.267Z,3.60
2019-06-26T10:54:22.628Z,3.00
2019-06-26T10:55:28.546Z,3.30
2019-06-26T10:56:34.032Z,4.65
2019-06-26T10:57:40.240Z,4.62
2019-06-26T10:58:46.037Z,3.10
2019-06-26T10:59:55.541Z,3.12
2019-06-26T11:00:59.149Z,4.92
2019-06-26T11:02:05.454Z,3.67
2019-06-26T11:03:12.888Z,4.33
2019-06-26T11:04:19.525Z,4.37
2019-06-26T11:05:26.323Z,6.00
2019-06-26T11:06:36.906Z,5.72
2019-06-26T11:07:41.203Z,6.30
2019-06-26T11:08:47.398Z,6.33
2019-06-26T11:09:54.267Z,5.85
2019-06-26T11:11:01.143Z,6.15
2019-06-26T11:12:06.681Z,5.55
2019-06-26T11:13:13.008Z,5.30
2019-06-26T11:14:18.178Z,5.08
2019-06-26T11:15:24.660Z,9.00
2019-06-26T11:16:30.082Z,5.10
2019-06-26T11:17:36.622Z,5.70
2019-06-26T11:18:41.797Z,5.50
2019-06-26T11:19:47.946Z,5.67
2019-06-26T11:20:53.523Z,9.38
2019-06-26T11:21:59.796Z,5.15
2019-06-26T11:23:05.010Z,5.08
2019-06-26T11:24:11.357Z,4.85
2019-06-26T11:25:19.635Z,5.15
2019-06-26T11:26:25.889Z,4.35
2019-06-26T11:27:31.013Z,4.70
2019-06-26T11:28:37.113Z,4.62
2019-06-26T11:29:45.425Z,4.20
2019-06-26T11:30:51.747Z,4.20
2019-06-26T11:31:57.370Z,3.75
2019-06-26T11:33:03.668Z,3.67
2019-06-26T11:34:08.856Z,4.03
2019-06-26T11:35:15.368Z,4.12
2019-06-26T11:36:20.533Z,3.42
2019-06-26T11:37:26.758Z,3.90
2019-06-26T11:38:32.237Z,3.75
2019-06-26T11:39:38.433Z,3.75
2019-06-26T11:40:43.859Z,5.28
2019-06-26T11:41:49.929Z,4.83
2019-06-26T11:42:55.375Z,5.05
2019-06-26T11:44:01.675Z,5.53
2019-06-26T11:45:08.470Z,7.05
2019-06-26T11:46:14.468Z,5.25
2019-06-26T11:47:19.728Z,5.58
2019-06-26T11:48:25.662Z,5.08
2019-06-26T11:49:31.206Z,5.80
2019-06-26T11:50:37.705Z,5.70
2019-06-26T11:51:42.839Z,5.35
2019-06-26T11:52:49.786Z,5.90
2019-06-26T11:53:58.864Z,5.70
2019-06-26T11:55:04.054Z,5.47
2019-06-26T11:56:10.300Z,5.67
2019-06-26T11:57:16.620Z,5.85
2019-06-26T11:58:22.082Z,5.58
2019-06-26T11:59:28.282Z,5.55
2019-06-26T12:00:33.735Z,6.60
2019-06-26T12:01:39.645Z,5.55
2019-06-26T12:02:45.877Z,5.42
2019-06-26T12:03:53.259Z,5.12
2019-06-26T12:04:58.436Z,4.85
2019-06-26T12:06:17.986Z,4.90
2019-06-26T12:07:11.656Z,5.12
2019-06-26T12:08:18.636Z,4.90
2019-06-26T12:09:24.722Z,4.55
2019-06-26T12:10:30.654Z,4.03
2019-06-26T12:11:36.257Z,4.22
2019-06-26T12:12:42.698Z,5.78
2019-06-26T12:13:48.595Z,5.37
2019-06-26T12:14:54.766Z,5.58
2019-06-26T12:15:59.900Z,6.00
2019-06-26T12:17:06.050Z,6.40
2019-06-26T12:18:11.236Z,5.30
2019-06-26T12:19:19.859Z,6.03
2019-06-26T12:20:24.292Z,5.95
2019-06-26T12:21:30.272Z,6.80
2019-06-26T12:22:36.104Z,9.03
2019-06-26T12:23:42.982Z,8.63
2019-06-26T12:24:48.489Z,6.85
2019-06-26T12:25:54.724Z,7.50
2019-06-26T12:27:00.525Z,8.60
2019-06-26T12:28:06.966Z,7.72
2019-06-26T12:29:12.862Z,7.72
2019-06-26T12:30:20.231Z,6.95
2019-06-26T12:31:25.979Z,7.10
2019-06-26T12:32:41.494Z,7.60
2019-06-26T12:33:41.526Z,7.65
2019-06-26T12:34:47.422Z,7.60
2019-06-26T12:35:52.972Z,7.83
2019-06-26T12:36:59.299Z,7.45
2019-06-26T12:38:05.106Z,8.93
2019-06-26T12:39:11.097Z,8.65
2019-06-26T12:40:17.249Z,8.35
2019-06-26T12:41:23.251Z,10.63
2019-06-26T12:42:29.133Z,7.55
2019-06-26T12:43:35.347Z,7.75
2019-06-26T12:44:41.046Z,7.83
2019-06-26T12:45:47.374Z,6.55
2019-06-26T12:46:52.975Z,7.45
2019-06-26T12:47:59.768Z,7.50
2019-06-26T12:49:04.943Z,8.75
2019-06-26T12:50:13.018Z,8.13
2019-06-26T12:51:18.081Z,8.83
2019-06-26T12:52:23.886Z,7.80
2019-06-26T12:53:31.189Z,7.97
2019-06-26T12:54:37.416Z,7.90
2019-06-26T12:55:42.544Z,7.83
2019-06-26T12:56:49.044Z,7.40
2019-06-26T12:58:11.373Z,7.78
2019-06-26T12:59:03.143Z,7.22
2019-06-26T13:00:08.722Z,7.75
2019-06-26T13:01:15.301Z,8.40
2019-06-26T13:02:20.571Z,8.70
2019-06-26T13:03:26.423Z,8.68
2019-06-26T13:04:31.875Z,8.23
2019-06-26T13:05:38.121Z,8.85
2019-06-26T13:06:43.694Z,9.23
2019-06-26T13:07:49.949Z,10.05
2019-06-26T13:08:55.877Z,8.90
2019-06-26T13:10:02.209Z,9.23
2019-06-26T13:11:07.822Z,8.95
2019-06-26T13:12:14.579Z,9.13
2019-06-26T13:13:19.720Z,8.90
2019-06-26T13:14:26.202Z,8.50
2019-06-26T13:15:31.348Z,7.75
2019-06-26T13:16:37.743Z,7.72
2019-06-26T13:17:42.986Z,8.30
2019-06-26T13:18:49.233Z,8.30
2019-06-26T13:19:54.559Z,8.50
2019-06-26T13:21:04.728Z,8.18
2019-06-26T13:22:07.909Z,8.45
2019-06-26T13:23:15.010Z,8.00
2019-06-26T13:24:20.475Z,8.00
2019-06-26T13:25:26.701Z,8.38
2019-06-26T13:26:32.105Z,7.87
2019-06-26T13:27:38.096Z,7.40
2019-06-26T13:28:43.576Z,7.35
2019-06-26T13:29:49.886Z,8.23
2019-06-26T13:30:55.037Z,7.83
2019-06-26T13:32:01.224Z,7.70
2019-06-26T13:33:06.600Z,7.20
2019-06-26T13:34:12.628Z,7.17
2019-06-26T13:35:17.856Z,7.47
2019-06-26T13:36:24.381Z,7.25
2019-06-26T13:37:29.581Z,6.62
2019-06-26T13:38:35.772Z,6.67
2019-06-26T13:39:41.418Z,6.67
2019-06-26T13:40:47.403Z,6.60
2019-06-26T13:41:52.900Z,6.47
2019-06-26T13:42:59.451Z,6.58
2019-06-26T13:44:05.025Z,7.17
2019-06-26T13:45:11.711Z,6.55
2019-06-26T13:46:17.246Z,8.15
2019-06-26T13:47:23.353Z,7.95
2019-06-26T13:48:28.527Z,7.87
2019-06-26T13:49:34.842Z,7.90
2019-06-26T13:50:40.521Z,8.03
2019-06-26T13:51:46.632Z,7.87
2019-06-26T13:52:52.498Z,8.33
2019-06-26T13:54:00.202Z,9.35
2019-06-26T13:55:05.964Z,8.28
2019-06-26T13:56:12.862Z,7.72
2019-06-26T13:57:18.599Z,7.37
2019-06-26T13:58:25.661Z,8.15
2019-06-26T13:59:31.817Z,7.70
2019-06-26T14:00:38.708Z,6.83
2019-06-26T14:01:44.746Z,8.55
2019-06-26T14:02:51.266Z,8.03
2019-06-26T14:03:56.412Z,8.13
2019-06-26T14:05:02.733Z,7.35
2019-06-26T14:06:07.857Z,7.95
2019-06-26T14:07:14.489Z,8.38
2019-06-26T14:08:20.250Z,8.25
2019-06-26T14:09:27.155Z,8.05
2019-06-26T14:10:32.677Z,8.23
2019-06-26T14:11:39.361Z,8.13
2019-06-26T14:12:44.788Z,8.40
2019-06-26T14:13:50.697Z,8.10
2019-06-26T14:14:57.969Z,8.13
2019-06-26T14:16:04.381Z,8.70
2019-06-26T14:17:10.260Z,8.63
2019-06-26T14:18:16.795Z,9.28
2019-06-26T14:19:22.034Z,8.78
2019-06-26T14:20:27.924Z,8.68
2019-06-26T14:21:33.599Z,8.68
2019-06-26T14:22:40.156Z,8.78
2019-06-26T14:23:45.660Z,9.90
2019-06-26T14:24:54.095Z,10.00
2019-06-26T14:25:58.403Z,8.93
2019-06-26T14:27:04.319Z,9.43
2019-06-26T14:28:09.493Z,9.58
2019-06-26T14:29:20.768Z,9.55
2019-06-26T14:30:27.653Z,9.43
2019-06-26T14:31:31.991Z,8.55
2019-06-26T14:32:37.548Z,9.43
2019-06-26T14:33:43.507Z,9.20
2019-06-26T14:34:48.968Z,9.05